Quinhagak, Alaska
Current Conditions -  °F | °C
As of 6:56 PM on Thursday 20 Nov 2014 (Local Time) from PAQH Reporting Station
Few Clouds Few Clouds  
Wind Chill: 30°   Ceiling: Unl
Heat Index: 39°   Visibility: 10mi
Dew Point: 31°   Wind: 16mph
Humidity: 73%   Direction: 10°N
Pressure: 28.78"   Gusts: NA
Location:  59.75°N, 161.92°W
Report Text: PAQH 210356Z AUTO 01014KT 10SM FEW120 04/M01 A2878 RMK AO2 SLP748 T00391006
Loading
Personal Weather Stations






























Interactive Weather Map New forecast layout! Learn more

10-Day Weather Forecast

Advertisements
Track Severe Weather on mobile